createdAt,value
2022-08-22T00:05:21.989Z,25.77
2022-08-22T00:07:26.535Z,25.76
2022-08-22T00:09:31.227Z,25.76
2022-08-22T00:11:35.752Z,25.73
2022-08-22T00:13:40.229Z,25.72
2022-08-22T00:15:44.798Z,25.68
2022-08-22T00:17:49.306Z,25.68
2022-08-22T00:19:53.825Z,25.66
2022-08-22T00:21:58.445Z,25.68
2022-08-22T00:24:03.062Z,25.68
2022-08-22T00:26:07.685Z,25.68
2022-08-22T00:28:12.204Z,25.67
2022-08-22T00:30:16.721Z,25.67
2022-08-22T00:32:21.239Z,25.66
2022-08-22T00:34:26.459Z,25.66
2022-08-22T00:36:31.095Z,25.67
2022-08-22T00:38:35.717Z,25.67
2022-08-22T00:40:40.237Z,25.68
2022-08-22T00:42:44.865Z,25.68
2022-08-22T00:44:49.585Z,25.69
2022-08-22T00:46:54.307Z,25.69
2022-08-22T00:48:58.927Z,25.7
2022-08-22T00:51:03.443Z,25.69
2022-08-22T00:53:07.965Z,25.69
2022-08-22T00:55:12.587Z,25.69
2022-08-22T00:57:17.211Z,25.68
2022-08-22T00:59:23.020Z,25.67
2022-08-22T01:01:28.293Z,25.65
2022-08-22T01:03:33.221Z,25.67
2022-08-22T01:05:37.844Z,25.67
2022-08-22T01:07:42.464Z,25.66
2022-08-22T01:09:47.083Z,25.67
2022-08-22T01:11:51.710Z,25.67
2022-08-22T01:13:56.228Z,25.67
2022-08-22T01:16:00.741Z,25.68
2022-08-22T01:18:05.273Z,25.68
2022-08-22T01:20:09.983Z,25.69
2022-08-22T01:22:14.436Z,25.68
2022-08-22T01:24:19.019Z,25.67
2022-08-22T01:26:27.674Z,25.66
2022-08-22T01:28:33.187Z,25.66
2022-08-22T01:30:37.879Z,25.68
2022-08-22T01:32:42.376Z,25.66
2022-08-22T01:34:46.946Z,25.66
2022-08-22T01:36:51.459Z,25.67
2022-08-22T01:38:55.965Z,25.68
2022-08-22T01:41:00.505Z,25.68
2022-08-22T01:43:06.962Z,25.69
2022-08-22T01:45:11.490Z,25.7
2022-08-22T01:47:16.205Z,25.67
2022-08-22T01:49:20.826Z,25.66
2022-08-22T01:51:25.374Z,25.65
2022-08-22T01:53:30.070Z,25.64
2022-08-22T01:55:34.528Z,25.64
2022-08-22T01:57:39.069Z,25.63
2022-08-22T01:59:43.727Z,25.62
2022-08-22T02:01:48.354Z,25.62
2022-08-22T02:03:52.866Z,25.62
2022-08-22T02:05:59.024Z,25.63
2022-08-22T02:08:03.743Z,25.63
2022-08-22T02:10:08.270Z,25.63
2022-08-22T02:12:13.967Z,25.64
2022-08-22T02:14:26.519Z,25.65
2022-08-22T02:16:31.040Z,25.64
2022-08-22T02:18:35.660Z,25.63
2022-08-22T02:20:40.178Z,25.63
2022-08-22T02:22:44.906Z,25.61
2022-08-22T02:24:49.525Z,25.6
2022-08-22T02:26:54.042Z,25.58
2022-08-22T02:28:58.665Z,25.58
2022-08-22T02:31:03.197Z,25.57
2022-08-22T02:33:07.694Z,25.56
2022-08-22T02:35:12.529Z,25.58
2022-08-22T02:37:17.148Z,25.57
2022-08-22T02:39:21.667Z,25.56
2022-08-22T02:41:26.385Z,25.56
2022-08-22T02:43:34.594Z,25.53
2022-08-22T02:45:39.218Z,25.53
2022-08-22T02:47:43.838Z,25.52
2022-08-22T02:49:48.459Z,25.52
2022-08-22T02:51:55.232Z,25.51
2022-08-22T02:53:59.699Z,25.49
2022-08-22T02:56:04.365Z,25.51
2022-08-22T02:58:08.842Z,25.51
2022-08-22T03:00:29.728Z,25.49
2022-08-22T03:02:37.076Z,25.47
2022-08-22T03:04:41.797Z,25.5
2022-08-22T03:06:46.426Z,25.48
2022-08-22T03:08:51.089Z,25.49
2022-08-22T03:10:55.663Z,25.46
2022-08-22T03:13:00.197Z,25.44
2022-08-22T03:15:04.803Z,25.43
2022-08-22T03:17:09.421Z,25.44
2022-08-22T03:19:18.371Z,25.42
2022-08-22T03:21:23.377Z,25.44
2022-08-22T03:23:28.051Z,25.43
2022-08-22T03:25:32.719Z,25.44
2022-08-22T03:27:37.339Z,25.4
2022-08-22T03:29:41.967Z,25.4
2022-08-22T03:31:46.586Z,25.41
2022-08-22T03:33:51.100Z,25.39
2022-08-22T03:35:55.727Z,25.39
2022-08-22T03:38:00.503Z,25.4
2022-08-22T03:40:05.187Z,25.41
2022-08-22T03:42:10.099Z,25.4
2022-08-22T03:44:14.620Z,25.4
2022-08-22T03:46:19.134Z,25.37
2022-08-22T03:48:23.656Z,25.37
2022-08-22T03:50:28.171Z,25.36
2022-08-22T03:52:32.695Z,25.39
2022-08-22T03:54:37.211Z,25.37
2022-08-22T03:56:41.831Z,25.39
2022-08-22T03:58:46.453Z,25.37
2022-08-22T04:00:51.032Z,25.35
2022-08-22T04:03:01.019Z,25.34
2022-08-22T04:05:05.537Z,25.34
2022-08-22T04:07:17.775Z,25.35
2022-08-22T04:09:37.514Z,25.36
2022-08-22T04:11:43.055Z,25.35
2022-08-22T04:13:47.581Z,25.35
2022-08-22T04:15:52.200Z,25.36
2022-08-22T04:17:57.173Z,25.37
2022-08-22T04:20:02.769Z,25.36
2022-08-22T04:22:07.491Z,25.36
2022-08-22T04:24:12.217Z,25.34
2022-08-22T04:26:16.839Z,25.33
2022-08-22T04:28:21.362Z,25.33
2022-08-22T04:30:25.983Z,25.32
2022-08-22T04:32:30.599Z,25.32
2022-08-22T04:34:35.219Z,25.32
2022-08-22T04:36:39.844Z,25.3
2022-08-22T04:38:44.364Z,25.3
2022-08-22T04:40:48.883Z,25.3
2022-08-22T04:42:53.505Z,25.31
2022-08-22T04:44:58.019Z,25.27
2022-08-22T04:47:02.641Z,25.27
2022-08-22T04:49:07.259Z,25.28
2022-08-22T04:51:11.883Z,25.27
2022-08-22T04:53:16.507Z,25.27
2022-08-22T04:55:21.225Z,25.27
2022-08-22T04:57:25.849Z,25.27
2022-08-22T04:59:30.366Z,25.26
2022-08-22T05:01:38.259Z,25.25
2022-08-22T05:03:44.926Z,25.24
2022-08-22T05:05:49.685Z,25.26
2022-08-22T05:07:54.383Z,25.26
2022-08-22T05:10:00.945Z,25.25
2022-08-22T05:12:16.543Z,25.26
2022-08-22T05:14:21.152Z,25.26
2022-08-22T05:16:25.786Z,25.23
2022-08-22T05:18:30.493Z,25.24
2022-08-22T05:20:35.111Z,25.25
2022-08-22T05:22:39.738Z,25.26
2022-08-22T05:24:44.359Z,25.24
2022-08-22T05:26:48.892Z,25.23
2022-08-22T05:28:53.635Z,25.22
2022-08-22T05:30:58.429Z,25.24
2022-08-22T05:33:03.153Z,25.24
2022-08-22T05:35:07.661Z,25.22
2022-08-22T05:37:12.291Z,25.23
2022-08-22T05:39:16.907Z,25.22
2022-08-22T05:41:21.530Z,25.22
2022-08-22T05:43:26.251Z,25.2
2022-08-22T05:45:30.771Z,25.19
2022-08-22T05:47:35.410Z,25.18
2022-08-22T05:49:40.014Z,25.16
2022-08-22T05:51:44.533Z,25.15
2022-08-22T05:53:49.049Z,25.16
2022-08-22T05:55:53.673Z,25.17
2022-08-22T05:57:58.289Z,25.13
2022-08-22T06:00:03.225Z,25.16
2022-08-22T06:02:08.240Z,25.16
2022-08-22T06:04:12.974Z,25.15
2022-08-22T06:06:17.585Z,25.14
2022-08-22T06:08:22.115Z,25.15
2022-08-22T06:10:26.738Z,25.15
2022-08-22T06:12:31.461Z,25.13
2022-08-22T06:14:38.641Z,25.13
2022-08-22T06:16:47.458Z,25.12
2022-08-22T06:18:53.513Z,25.14
2022-08-22T06:20:58.031Z,25.14
2022-08-22T06:23:02.557Z,25.13
2022-08-22T06:25:07.275Z,25.13
2022-08-22T06:27:12.001Z,25.12
2022-08-22T06:29:16.723Z,25.11
2022-08-22T06:31:21.375Z,25.1
2022-08-22T06:33:26.069Z,25.07
2022-08-22T06:35:30.691Z,25.08
2022-08-22T06:37:35.411Z,25.08
2022-08-22T06:39:39.956Z,25.1
2022-08-22T06:41:44.757Z,25.1
2022-08-22T06:43:49.278Z,25.08
2022-08-22T06:45:53.898Z,25.07
2022-08-22T06:48:00.826Z,25.07
2022-08-22T06:50:06.422Z,25.06
2022-08-22T06:52:18.311Z,25.07
2022-08-22T06:54:22.932Z,25.06
2022-08-22T06:56:27.552Z,25.07
2022-08-22T06:58:34.003Z,25.06
2022-08-22T07:00:39.150Z,25.08
2022-08-22T07:02:43.767Z,25.07
2022-08-22T07:04:48.394Z,25.07
2022-08-22T07:06:53.016Z,25.08
2022-08-22T07:08:57.535Z,25.08
2022-08-22T07:11:08.297Z,25.09
2022-08-22T07:13:12.810Z,25.09
2022-08-22T07:15:17.440Z,25.1
2022-08-22T07:17:22.064Z,25.12
2022-08-22T07:19:26.682Z,25.09
2022-08-22T07:21:32.554Z,25.09
2022-08-22T07:23:42.066Z,25.08
2022-08-22T07:25:46.690Z,25.11
2022-08-22T07:27:51.210Z,25.12
2022-08-22T07:29:55.825Z,25.12
2022-08-22T07:32:00.552Z,25.08
2022-08-22T07:34:05.175Z,25.07
2022-08-22T07:36:09.690Z,25.06
2022-08-22T07:38:14.208Z,25.03
2022-08-22T07:40:19.015Z,25.03
2022-08-22T07:42:26.578Z,25.05
2022-08-22T07:44:34.014Z,25.05
2022-08-22T07:46:38.631Z,25.1
2022-08-22T07:48:59.466Z,25.12
2022-08-22T07:51:13.680Z,25.12
2022-08-22T07:53:18.198Z,25.16
2022-08-22T07:55:22.719Z,25.19
2022-08-22T07:57:27.346Z,25.21
2022-08-22T07:59:34.627Z,25.24
2022-08-22T08:01:39.174Z,25.27
2022-08-22T08:03:43.978Z,25.26
2022-08-22T08:05:48.691Z,25.29
2022-08-22T08:07:53.230Z,25.26
2022-08-22T08:09:57.933Z,25.24
2022-08-22T08:12:02.453Z,25.23
2022-08-22T08:14:07.081Z,25.25
2022-08-22T08:16:17.225Z,25.27
2022-08-22T08:18:21.860Z,25.29
2022-08-22T08:20:26.570Z,25.3
2022-08-22T08:22:31.289Z,25.32
2022-08-22T08:24:36.165Z,25.35
2022-08-22T08:26:49.548Z,25.34
2022-08-22T08:28:54.062Z,25.34
2022-08-22T08:30:58.696Z,25.37
2022-08-22T08:33:24.535Z,25.36
2022-08-22T08:35:30.763Z,25.36
2022-08-22T08:38:06.991Z,25.37
2022-08-22T08:40:11.699Z,25.35
2022-08-22T08:42:16.523Z,25.33
2022-08-22T08:44:21.194Z,25.34
2022-08-22T08:46:25.715Z,25.36
2022-08-22T08:48:31.439Z,25.34
2022-08-22T08:50:36.800Z,25.37
2022-08-22T08:52:41.195Z,25.39
2022-08-22T08:54:46.002Z,25.42
2022-08-22T08:56:54.370Z,25.46
2022-08-22T08:58:58.992Z,25.48
2022-08-22T09:01:03.496Z,25.49
2022-08-22T09:03:09.850Z,25.5
2022-08-22T09:05:26.554Z,25.49
2022-08-22T09:07:31.336Z,25.46
2022-08-22T09:09:39.581Z,25.47
2022-08-22T09:11:46.464Z,25.47
2022-08-22T09:13:55.486Z,25.44
2022-08-22T09:16:04.641Z,25.44
2022-08-22T09:18:13.430Z,25.47
2022-08-22T09:20:24.481Z,25.49
2022-08-22T09:22:33.366Z,25.54
2022-08-22T09:42:31.322Z,25.77
2022-08-22T09:44:39.392Z,25.72
2022-08-22T09:46:47.410Z,25.69
2022-08-22T09:48:53.463Z,25.69
2022-08-22T09:51:04.831Z,25.68
2022-08-22T09:53:36.604Z,25.69
2022-08-22T09:55:41.636Z,25.67
2022-08-22T09:57:47.106Z,25.65
2022-08-22T09:59:52.716Z,25.64
2022-08-22T10:02:01.650Z,25.65
2022-08-22T10:04:08.724Z,25.67
2022-08-22T10:06:15.079Z,25.67
2022-08-22T10:08:25.498Z,25.66
2022-08-22T10:10:31.182Z,25.63
2022-08-22T10:12:35.733Z,25.6
2022-08-22T10:14:50.567Z,25.59
2022-08-22T10:16:55.692Z,25.6
2022-08-22T10:19:00.748Z,25.58
2022-08-22T10:21:08.721Z,25.58
2022-08-22T10:23:13.346Z,25.59
2022-08-22T10:25:23.605Z,25.61
2022-08-22T10:27:31.086Z,25.6
2022-08-22T10:29:35.606Z,25.59
2022-08-22T10:31:45.022Z,25.63
2022-08-22T10:34:17.307Z,25.63
2022-08-22T10:36:26.208Z,25.65
2022-08-22T10:38:30.954Z,25.66
2022-08-22T10:40:48.989Z,25.69
2022-08-22T10:42:53.762Z,25.71
2022-08-22T10:45:02.944Z,25.73
2022-08-22T10:47:08.073Z,25.71
2022-08-22T10:49:16.452Z,25.69
2022-08-22T10:51:31.451Z,25.68
2022-08-22T10:53:39.240Z,25.69
2022-08-22T10:55:44.588Z,25.67
2022-08-22T10:57:52.777Z,25.66
2022-08-22T10:59:58.444Z,25.66
2022-08-22T11:02:03.311Z,25.65
2022-08-22T11:04:12.155Z,25.64
2022-08-22T11:06:16.854Z,25.64
2022-08-22T11:08:22.048Z,25.62
2022-08-22T11:10:30.342Z,25.62
2022-08-22T11:12:41.597Z,25.61
2022-08-22T11:14:48.192Z,25.6
2022-08-22T11:16:54.979Z,25.6
2022-08-22T11:19:02.195Z,25.64
2022-08-22T11:21:19.259Z,25.65
2022-08-22T11:23:25.315Z,25.67
2022-08-22T11:25:36.112Z,25.67
2022-08-22T11:27:43.667Z,25.68
2022-08-22T11:29:48.190Z,25.69
2022-08-22T11:31:55.678Z,25.7
2022-08-22T11:34:12.076Z,25.74
2022-08-22T11:36:17.436Z,25.78
2022-08-22T11:38:33.907Z,25.78
2022-08-22T11:40:40.687Z,25.79
2022-08-22T11:42:47.328Z,25.82
2022-08-22T11:45:07.027Z,25.85
2022-08-22T11:47:12.160Z,25.85
2022-08-22T11:49:18.810Z,25.86
2022-08-22T11:51:29.512Z,25.86
2022-08-22T11:53:39.741Z,25.86
2022-08-22T11:55:45.042Z,25.86
2022-08-22T11:57:51.040Z,25.84
2022-08-22T11:59:55.853Z,25.84
2022-08-22T12:02:00.719Z,25.81
2022-08-22T12:04:12.829Z,25.81
2022-08-22T12:06:17.713Z,25.8
2022-08-22T12:08:22.957Z,25.81
2022-08-22T12:10:27.590Z,25.8
2022-08-22T12:12:32.104Z,25.8
2022-08-22T12:14:37.831Z,25.78
2022-08-22T12:16:47.272Z,25.78
2022-08-22T12:18:52.804Z,25.77
2022-08-22T12:20:58.245Z,25.78
2022-08-22T12:23:03.243Z,25.77
2022-08-22T12:25:09.808Z,25.77
2022-08-22T12:27:18.479Z,25.76
2022-08-22T12:29:39.779Z,25.77
2022-08-22T12:31:49.205Z,25.77
2022-08-22T12:33:54.335Z,25.77
2022-08-22T12:35:59.061Z,25.76
2022-08-22T12:38:04.470Z,25.78
2022-08-22T12:40:43.711Z,25.76
2022-08-22T12:42:49.795Z,25.78
2022-08-22T12:44:55.335Z,25.76
2022-08-22T12:47:01.284Z,25.75
2022-08-22T12:49:11.746Z,25.73
2022-08-22T12:51:17.799Z,25.77
2022-08-22T12:53:22.982Z,25.78
2022-08-22T12:55:27.649Z,25.78
2022-08-22T12:57:32.585Z,25.78
2022-08-22T12:59:37.428Z,25.8
2022-08-22T13:01:43.416Z,25.8
2022-08-22T13:03:49.327Z,25.79
2022-08-22T13:05:56.730Z,25.77
2022-08-22T13:08:05.014Z,25.72
2022-08-22T13:10:12.012Z,25.72
2022-08-22T13:12:21.149Z,25.71
2022-08-22T13:14:26.052Z,25.7
2022-08-22T13:16:30.762Z,25.7
2022-08-22T13:18:36.109Z,25.73
2022-08-22T13:20:47.312Z,25.76
2022-08-22T13:22:54.406Z,25.81
2022-08-22T13:25:04.810Z,25.8
2022-08-22T13:27:12.225Z,25.79
2022-08-22T13:29:26.671Z,25.8
2022-08-22T13:31:45.431Z,25.8
2022-08-22T13:33:57.833Z,25.8
2022-08-22T13:36:05.630Z,25.79
2022-08-22T13:38:13.428Z,25.81
2022-08-22T13:40:26.386Z,25.83
2022-08-22T13:42:32.600Z,25.87
2022-08-22T13:44:42.648Z,25.88
2022-08-22T13:47:11.086Z,25.89
2022-08-22T13:49:19.234Z,25.89
2022-08-22T13:51:28.256Z,25.89
2022-08-22T13:53:34.928Z,25.88
2022-08-22T13:55:42.953Z,25.88
2022-08-22T13:57:52.663Z,25.89
2022-08-22T14:00:05.235Z,25.89
2022-08-22T14:02:15.158Z,25.89
2022-08-22T14:04:34.682Z,25.89
2022-08-22T14:06:41.293Z,25.91
2022-08-22T14:08:48.543Z,25.94
2022-08-22T14:10:55.134Z,25.95
2022-08-22T14:13:09.357Z,25.97
2022-08-22T14:15:13.903Z,25.98
2022-08-22T14:17:18.495Z,25.98
2022-08-22T14:19:24.555Z,25.98
2022-08-22T14:21:33.395Z,25.98
2022-08-22T14:23:45.501Z,25.99
2022-08-22T14:25:51.327Z,25.99
2022-08-22T14:27:56.551Z,25.99
2022-08-22T14:30:03.640Z,26
2022-08-22T14:32:11.120Z,26
2022-08-22T14:34:15.948Z,26.07
2022-08-22T14:36:21.597Z,26.1
2022-08-22T14:38:30.409Z,26.14
2022-08-22T14:40:35.194Z,26.15
2022-08-22T14:42:39.964Z,26.14
2022-08-22T14:44:49.095Z,26.14
2022-08-22T14:46:55.355Z,26.12
2022-08-22T14:49:00.721Z,26.11
2022-08-22T14:51:05.592Z,26.1
2022-08-22T14:53:13.107Z,26.05
2022-08-22T14:55:17.729Z,25.99
2022-08-22T14:57:22.554Z,25.95
2022-08-22T14:59:27.207Z,25.91
2022-08-22T15:01:33.273Z,25.86
2022-08-22T15:03:40.954Z,25.82
2022-08-22T15:05:48.093Z,25.81
2022-08-22T15:07:53.597Z,25.78
2022-08-22T15:10:00.995Z,25.76
2022-08-22T15:12:14.283Z,25.74
2022-08-22T15:14:18.981Z,25.76
2022-08-22T15:16:23.603Z,25.74
2022-08-22T15:18:29.019Z,25.73
2022-08-22T15:20:36.243Z,25.71
2022-08-22T15:22:55.701Z,25.7
2022-08-22T15:25:01.650Z,25.69
2022-08-22T15:27:07.556Z,25.68
2022-08-22T15:29:13.449Z,25.6
2022-08-22T15:31:20.269Z,25.6
2022-08-22T15:33:26.279Z,25.56
2022-08-22T15:35:34.183Z,25.49
2022-08-22T15:37:43.510Z,25.39
2022-08-22T15:39:51.785Z,25.3
2022-08-22T15:41:57.973Z,25.26
2022-08-22T15:44:03.822Z,25.24
2022-08-22T15:46:09.861Z,25.2
2022-08-22T15:48:21.659Z,25.22
2022-08-22T15:50:26.797Z,25.2
2022-08-22T15:52:31.421Z,25.18
2022-08-22T15:54:36.755Z,25.16
2022-08-22T15:56:53.876Z,25.14
2022-08-22T15:59:00.038Z,25.09
2022-08-22T16:01:05.261Z,25.08
2022-08-22T16:03:25.863Z,25.05
2022-08-22T16:05:31.194Z,25.01
2022-08-22T16:07:35.819Z,24.96
2022-08-22T16:09:40.451Z,24.92
2022-08-22T16:11:48.085Z,24.92
2022-08-22T16:13:52.765Z,24.89
2022-08-22T16:16:02.600Z,24.86
2022-08-22T16:18:07.364Z,24.83
2022-08-22T16:20:15.904Z,24.8
2022-08-22T16:22:24.605Z,24.78
2022-08-22T16:24:29.203Z,24.77
2022-08-22T16:26:39.438Z,24.74
2022-08-22T16:28:57.686Z,24.72
2022-08-22T16:31:03.016Z,24.7
2022-08-22T16:33:12.263Z,24.67
2022-08-22T16:35:22.598Z,24.67
2022-08-22T16:37:27.336Z,24.67
2022-08-22T16:39:32.154Z,24.74
2022-08-22T16:41:36.828Z,24.76
2022-08-22T16:43:52.796Z,24.8
2022-08-22T16:45:59.839Z,24.79
2022-08-22T16:48:04.568Z,24.81
2022-08-22T16:50:09.700Z,24.8
2022-08-22T16:52:15.931Z,24.81
2022-08-22T16:54:20.408Z,24.8
2022-08-22T16:56:25.096Z,24.8
2022-08-22T16:58:44.872Z,24.82
2022-08-22T17:01:25.071Z,24.81
2022-08-22T17:03:29.944Z,24.81
2022-08-22T17:05:34.470Z,24.81
2022-08-22T17:07:38.990Z,24.82
2022-08-22T17:09:43.616Z,24.79
2022-08-22T17:11:48.337Z,24.78
2022-08-22T17:13:53.063Z,24.76
2022-08-22T17:15:57.651Z,24.75
2022-08-22T17:18:10.839Z,24.77
2022-08-22T17:20:16.857Z,24.77
2022-08-22T17:22:23.224Z,24.75
2022-08-22T17:24:33.862Z,24.73
2022-08-22T17:26:38.908Z,24.74
2022-08-22T17:28:43.529Z,24.73
2022-08-22T17:30:48.163Z,24.73
2022-08-22T17:32:57.166Z,24.72
2022-08-22T17:35:04.655Z,24.7
2022-08-22T17:37:09.296Z,24.69
2022-08-22T17:39:14.114Z,24.66
2022-08-22T17:41:18.741Z,24.65
2022-08-22T17:43:24.698Z,24.62
2022-08-22T17:45:29.423Z,24.6
2022-08-22T17:47:34.037Z,24.58
2022-08-22T17:49:38.663Z,24.57
2022-08-22T17:51:43.326Z,24.57
2022-08-22T17:53:48.005Z,24.56
2022-08-22T17:55:52.528Z,24.56
2022-08-22T17:57:57.112Z,24.55
2022-08-22T18:00:02.280Z,24.55
2022-08-22T18:02:07.017Z,24.56
2022-08-22T18:04:12.857Z,24.53
2022-08-22T18:06:17.579Z,24.54
2022-08-22T18:08:38.028Z,24.53
2022-08-22T18:11:17.610Z,24.52
2022-08-22T18:13:22.233Z,24.51
2022-08-22T18:15:26.756Z,24.48
2022-08-22T18:17:31.282Z,24.48
2022-08-22T18:19:35.998Z,24.47
2022-08-22T18:21:40.614Z,24.46
2022-08-22T18:23:45.166Z,24.45
2022-08-22T18:25:53.033Z,24.43
2022-08-22T18:27:57.808Z,24.42
2022-08-22T18:30:03.318Z,24.42
2022-08-22T18:32:08.023Z,24.42
2022-08-22T18:34:15.836Z,24.41
2022-08-22T18:36:22.183Z,24.41
2022-08-22T18:38:28.448Z,24.42
2022-08-22T18:40:33.187Z,24.41
2022-08-22T18:42:37.789Z,24.42
2022-08-22T18:44:42.422Z,24.39
2022-08-22T18:46:47.039Z,24.37
2022-08-22T18:49:14.435Z,24.38
2022-08-22T18:51:23.944Z,24.37
2022-08-22T18:53:29.162Z,24.34
2022-08-22T18:55:33.832Z,24.35
2022-08-22T18:57:38.761Z,24.35
2022-08-22T18:59:47.128Z,24.33
2022-08-22T19:01:51.794Z,24.31
2022-08-22T19:03:56.787Z,24.31
2022-08-22T19:06:01.503Z,24.3
2022-08-22T19:08:06.141Z,24.31
2022-08-22T19:10:10.845Z,24.31
2022-08-22T19:12:15.467Z,24.3
2022-08-22T19:14:20.195Z,24.3
2022-08-22T19:16:24.815Z,24.3
2022-08-22T19:18:29.334Z,24.31
2022-08-22T19:20:33.950Z,24.3
2022-08-22T19:22:38.577Z,24.3
2022-08-22T19:24:43.300Z,24.3
2022-08-22T19:26:48.032Z,24.28
2022-08-22T19:28:52.668Z,24.29
2022-08-22T19:30:57.482Z,24.29
2022-08-22T19:33:02.436Z,24.26
2022-08-22T19:35:07.021Z,24.27
2022-08-22T19:37:31.261Z,24.24
2022-08-22T19:39:38.390Z,24.25
2022-08-22T19:41:46.582Z,24.21
2022-08-22T19:43:51.212Z,24.23
2022-08-22T19:45:55.735Z,24.18
2022-08-22T19:48:00.549Z,24.14
2022-08-22T19:50:05.877Z,24.1
2022-08-22T19:52:10.716Z,24.06
2022-08-22T19:54:16.717Z,24.03
2022-08-22T19:56:21.597Z,24.03
2022-08-22T19:58:31.066Z,24.01
2022-08-22T20:00:37.390Z,23.99
2022-08-22T20:02:42.117Z,23.97
2022-08-22T20:04:46.637Z,23.94
2022-08-22T20:06:51.152Z,23.93
2022-08-22T20:08:55.672Z,23.94
2022-08-22T20:11:00.197Z,23.89
2022-08-22T20:13:04.750Z,23.91
2022-08-22T20:15:11.175Z,23.92
2022-08-22T20:17:15.793Z,23.92
2022-08-22T20:19:20.522Z,23.91
2022-08-22T20:21:25.244Z,23.92
2022-08-22T20:23:34.909Z,23.91
2022-08-22T20:25:43.270Z,23.91
2022-08-22T20:27:48.536Z,23.91
2022-08-22T20:29:53.255Z,23.91
2022-08-22T20:31:58.844Z,23.91
2022-08-22T20:34:03.929Z,23.91
2022-08-22T20:36:13.886Z,23.9
2022-08-22T20:38:33.146Z,23.92
2022-08-22T20:40:53.671Z,23.91
2022-08-22T20:43:04.303Z,23.87
2022-08-22T20:45:20.302Z,23.86
2022-08-22T20:47:36.240Z,23.87
2022-08-22T20:49:52.120Z,23.85
2022-08-22T20:51:56.885Z,23.83
2022-08-22T20:54:01.427Z,23.82
2022-08-22T20:56:19.148Z,23.8
2022-08-22T20:58:23.856Z,23.78
2022-08-22T21:00:28.578Z,23.76
2022-08-22T21:02:33.202Z,23.77
2022-08-22T21:04:42.037Z,23.77
2022-08-22T21:06:47.351Z,23.76
2022-08-22T21:08:51.873Z,23.72
2022-08-22T21:10:56.389Z,23.71
2022-08-22T21:13:01.015Z,23.73
2022-08-22T21:15:05.602Z,23.81
2022-08-22T21:17:10.287Z,23.9
2022-08-22T21:19:14.875Z,24.02
2022-08-22T21:21:19.499Z,24.11
2022-08-22T21:23:24.080Z,24.21
2022-08-22T21:25:28.740Z,24.28
2022-08-22T21:27:33.288Z,24.35
2022-08-22T21:29:37.987Z,24.38
2022-08-22T21:31:42.604Z,24.4
2022-08-22T21:33:47.123Z,24.41
2022-08-22T21:35:51.849Z,24.43
2022-08-22T21:37:57.376Z,24.44
2022-08-22T21:40:05.660Z,24.44
2022-08-22T21:42:17.859Z,24.45
2022-08-22T21:44:22.521Z,24.46
2022-08-22T21:46:27.143Z,24.47
2022-08-22T21:48:31.769Z,24.47
2022-08-22T21:50:36.277Z,24.48
2022-08-22T21:52:41.008Z,24.49
2022-08-22T21:54:45.641Z,24.49
2022-08-22T21:56:50.548Z,24.51
2022-08-22T21:58:55.122Z,24.52
2022-08-22T22:01:02.861Z,24.53
2022-08-22T22:03:17.008Z,24.56
2022-08-22T22:05:21.519Z,24.57
2022-08-22T22:07:26.144Z,24.6
2022-08-22T22:09:30.764Z,24.6
2022-08-22T22:11:35.258Z,24.61
2022-08-22T22:13:39.799Z,24.62
2022-08-22T22:15:44.319Z,24.62
2022-08-22T22:17:48.943Z,24.65
2022-08-22T22:19:53.563Z,24.65
2022-08-22T22:21:58.189Z,24.66
2022-08-22T22:24:02.802Z,24.67
2022-08-22T22:26:07.321Z,24.68
2022-08-22T22:28:11.939Z,24.68
2022-08-22T22:30:16.463Z,24.68
2022-08-22T22:32:24.461Z,24.69
2022-08-22T22:34:29.020Z,24.71
2022-08-22T22:36:33.718Z,24.7
2022-08-22T22:38:38.427Z,24.71
2022-08-22T22:40:43.051Z,24.71
2022-08-22T22:42:47.779Z,24.75
2022-08-22T22:44:52.391Z,24.75
2022-08-22T22:46:57.013Z,24.79
2022-08-22T22:49:01.638Z,24.79
2022-08-22T22:51:06.356Z,24.79
2022-08-22T22:53:10.971Z,24.8
2022-08-22T22:55:36.159Z,24.8
2022-08-22T22:57:46.943Z,24.8
2022-08-22T23:00:01.287Z,24.82
2022-08-22T23:02:06.115Z,24.83
2022-08-22T23:04:10.732Z,24.83
2022-08-22T23:06:15.566Z,24.82
2022-08-22T23:08:20.293Z,24.85
2022-08-22T23:10:24.918Z,24.86
2022-08-22T23:12:29.507Z,24.87
2022-08-22T23:14:34.249Z,24.89
2022-08-22T23:16:38.976Z,24.88
2022-08-22T23:18:43.695Z,24.88
2022-08-22T23:20:48.381Z,24.88
2022-08-22T23:22:53.457Z,24.88
2022-08-22T23:24:58.070Z,24.89
2022-08-22T23:27:02.799Z,24.9
2022-08-22T23:29:07.516Z,24.91
2022-08-22T23:31:12.147Z,24.91
2022-08-22T23:33:16.757Z,24.92
2022-08-22T23:35:21.378Z,24.92
2022-08-22T23:37:25.997Z,24.93
2022-08-22T23:39:30.516Z,24.93
2022-08-22T23:41:35.137Z,24.94
2022-08-22T23:43:39.763Z,24.95
2022-08-22T23:45:44.275Z,24.94
2022-08-22T23:47:48.897Z,24.95
2022-08-22T23:49:53.389Z,24.94
2022-08-22T23:51:58.039Z,24.94
2022-08-22T23:54:02.552Z,24.94
2022-08-22T23:56:07.074Z,24.94
2022-08-22T23:58:22.957Z,24.94
